createdAt,value
2023-02-02T00:02:00.769Z,37.02
2023-02-02T00:04:27.550Z,37.31
2023-02-02T00:06:54.420Z,37.33
2023-02-02T00:09:21.310Z,37.32
2023-02-02T00:11:48.638Z,37.13
2023-02-02T00:14:15.563Z,37.18
2023-02-02T00:16:44.296Z,37.12
2023-02-02T00:19:16.637Z,37.32
2023-02-02T00:21:43.686Z,37.04
2023-02-02T00:24:11.746Z,37.29
2023-02-02T00:26:39.955Z,37.40
2023-02-02T00:29:07.674Z,37.30
2023-02-02T00:31:34.854Z,37.52
2023-02-02T00:34:01.794Z,37.71
2023-02-02T00:36:28.771Z,37.45
2023-02-02T00:38:55.687Z,37.56
2023-02-02T00:41:23.386Z,37.53
2023-02-02T00:44:10.268Z,37.35
2023-02-02T00:46:39.777Z,37.54
2023-02-02T00:49:07.233Z,37.93
2023-02-02T00:51:34.483Z,37.60
2023-02-02T00:54:01.378Z,37.99
2023-02-02T00:56:28.253Z,37.60
2023-02-02T00:58:55.097Z,37.88
2023-02-02T01:01:22.286Z,37.99
2023-02-02T01:03:50.118Z,37.63
2023-02-02T01:06:17.690Z,37.79
2023-02-02T01:08:44.592Z,37.94
2023-02-02T01:11:11.444Z,38.04
2023-02-02T01:13:38.352Z,37.96
2023-02-02T01:16:05.751Z,37.83
2023-02-02T01:18:32.660Z,38.20
2023-02-02T01:21:07.624Z,37.84
2023-02-02T01:23:36.406Z,38.15
2023-02-02T01:26:04.495Z,37.96
2023-02-02T01:28:32.316Z,38.22
2023-02-02T01:30:59.333Z,38.32
2023-02-02T01:33:26.203Z,38.18
2023-02-02T01:35:54.912Z,37.99
2023-02-02T01:38:23.817Z,38.12
2023-02-02T01:40:54.169Z,38.16
2023-02-02T01:43:28.886Z,38.35
2023-02-02T01:45:57.193Z,38.28
2023-02-02T01:48:31.948Z,38.22
2023-02-02T01:51:03.152Z,38.46
2023-02-02T01:53:30.011Z,38.33
2023-02-02T01:55:58.093Z,38.36
2023-02-02T01:58:33.896Z,38.33
2023-02-02T02:01:00.747Z,38.48
2023-02-02T02:03:28.776Z,38.44
2023-02-02T02:06:16.049Z,38.32
2023-02-02T02:09:06.195Z,38.03
2023-02-02T02:11:34.250Z,38.01
2023-02-02T02:14:29.530Z,37.61
2023-02-02T02:17:22.434Z,37.79
2023-02-02T02:20:29.867Z,37.77
2023-02-02T02:23:40.608Z,37.92
2023-02-02T02:26:33.808Z,37.59
2023-02-02T02:29:27.183Z,38.00
2023-02-02T02:32:18.984Z,37.95
2023-02-02T02:35:04.455Z,37.65
2023-02-02T02:37:44.017Z,37.89
2023-02-02T02:40:22.092Z,37.86
2023-02-02T02:43:11.005Z,38.02
2023-02-02T02:45:37.949Z,37.78
2023-02-02T02:48:05.096Z,37.88
2023-02-02T02:50:32.187Z,37.47
2023-02-02T02:53:04.239Z,37.62
2023-02-02T02:55:46.395Z,37.61
2023-02-02T02:58:37.386Z,37.82
2023-02-02T03:01:30.366Z,37.74
2023-02-02T03:04:18.767Z,37.92
2023-02-02T03:06:53.153Z,37.82
2023-02-02T03:09:22.415Z,37.87
2023-02-02T03:11:49.249Z,37.33
2023-02-02T03:14:16.078Z,37.08
2023-02-02T03:16:43.010Z,36.98
2023-02-02T03:19:09.876Z,36.78
2023-02-02T03:21:36.774Z,36.76
2023-02-02T03:24:04.054Z,36.41
2023-02-02T03:26:31.031Z,35.86
2023-02-02T03:28:57.871Z,35.97
2023-02-02T03:31:27.155Z,35.20
2023-02-02T03:33:54.918Z,35.34
2023-02-02T03:36:21.952Z,35.01
2023-02-02T03:38:48.882Z,34.34
2023-02-02T03:41:15.734Z,34.37
2023-02-02T03:43:42.598Z,33.97
2023-02-02T03:46:09.523Z,33.68
2023-02-02T03:48:37.729Z,33.54
2023-02-02T03:51:14.553Z,33.01
2023-02-02T03:53:44.397Z,32.90
2023-02-02T03:56:11.318Z,32.74
2023-02-02T03:58:38.191Z,32.46
2023-02-02T04:01:05.960Z,31.94
2023-02-02T04:03:33.204Z,31.95
2023-02-02T04:06:00.569Z,31.51
2023-02-02T04:08:28.459Z,31.36
2023-02-02T04:10:55.360Z,31.19
2023-02-02T04:13:22.244Z,30.91
2023-02-02T04:15:56.007Z,30.79
2023-02-02T04:18:22.911Z,30.61
2023-02-02T04:20:49.755Z,30.34
2023-02-02T04:23:16.643Z,30.29
2023-02-02T04:25:50.418Z,29.85
2023-02-02T04:28:17.254Z,29.66
2023-02-02T04:30:44.231Z,29.48
2023-02-02T04:33:11.166Z,29.34
2023-02-02T04:35:38.017Z,29.20
2023-02-02T04:38:05.188Z,29.09
2023-02-02T04:40:32.144Z,28.77
2023-02-02T04:42:58.992Z,28.60
2023-02-02T04:45:26.228Z,28.43
2023-02-02T04:47:53.438Z,28.22
2023-02-02T04:50:20.360Z,27.86
2023-02-02T04:52:47.308Z,28.02
2023-02-02T04:55:14.444Z,28.09
2023-02-02T04:57:41.481Z,28.11
2023-02-02T05:00:11.550Z,27.99
2023-02-02T05:02:39.216Z,28.02
2023-02-02T05:05:08.206Z,27.76
2023-02-02T05:07:35.529Z,27.76
2023-02-02T05:10:03.582Z,27.62
2023-02-02T05:12:30.718Z,27.47
2023-02-02T05:14:57.765Z,27.30
2023-02-02T05:17:24.775Z,27.08
2023-02-02T05:19:51.764Z,26.89
2023-02-02T05:22:18.807Z,27.04
2023-02-02T05:24:46.747Z,27.13
2023-02-02T05:27:13.716Z,27.08
2023-02-02T05:29:40.725Z,26.88
2023-02-02T05:32:07.975Z,26.80
2023-02-02T05:34:35.133Z,26.68
2023-02-02T05:37:02.247Z,26.69
2023-02-02T05:39:29.287Z,26.77
2023-02-02T05:41:56.268Z,26.64
2023-02-02T05:44:23.295Z,26.56
2023-02-02T05:46:50.441Z,26.40
2023-02-02T05:49:17.339Z,26.47
2023-02-02T05:51:46.711Z,26.07
2023-02-02T05:54:17.514Z,25.93
2023-02-02T05:56:44.456Z,26.05
2023-02-02T05:59:11.324Z,26.07
2023-02-02T06:01:38.372Z,25.89
2023-02-02T06:04:05.446Z,25.84
2023-02-02T06:06:32.443Z,25.79
2023-02-02T06:08:59.753Z,25.39
2023-02-02T06:11:26.991Z,25.69
2023-02-02T06:13:53.992Z,25.78
2023-02-02T06:16:21.161Z,25.48
2023-02-02T06:18:48.703Z,25.57
2023-02-02T06:21:15.699Z,25.32
2023-02-02T06:23:46.139Z,25.37
2023-02-02T06:26:13.642Z,25.37
2023-02-02T06:28:41.170Z,25.56
2023-02-02T06:31:09.402Z,25.62
2023-02-02T06:33:36.500Z,25.31
2023-02-02T06:36:04.979Z,25.35
2023-02-02T06:38:32.009Z,25.41
2023-02-02T06:41:02.478Z,25.53
2023-02-02T06:43:30.113Z,25.56
2023-02-02T06:45:57.700Z,25.58
2023-02-02T06:48:25.410Z,25.54
2023-02-02T06:50:53.226Z,25.40
2023-02-02T06:53:23.437Z,25.47
2023-02-02T06:55:57.598Z,25.47
2023-02-02T06:58:24.799Z,25.59
2023-02-02T07:00:51.862Z,25.36
2023-02-02T07:03:21.482Z,25.36
2023-02-02T07:05:49.300Z,25.17
2023-02-02T07:08:16.366Z,25.49
2023-02-02T07:11:13.423Z,25.61
2023-02-02T07:13:31.696Z,25.82
2023-02-02T07:15:58.652Z,25.01
2023-02-02T07:18:25.589Z,25.24
2023-02-02T07:20:52.553Z,25.21
2023-02-02T07:23:19.435Z,25.34
2023-02-02T07:25:46.349Z,25.28
2023-02-02T07:28:13.280Z,25.04
2023-02-02T07:30:40.234Z,25.15
2023-02-02T07:33:07.228Z,24.79
2023-02-02T07:35:34.216Z,24.34
2023-02-02T07:38:01.164Z,24.02
2023-02-02T07:40:28.137Z,23.99
2023-02-02T07:42:55.302Z,24.15
2023-02-02T07:45:36.345Z,24.33
2023-02-02T07:48:03.618Z,22.60
2023-02-02T07:50:30.727Z,22.46
2023-02-02T07:52:59.735Z,22.31
2023-02-02T07:55:26.861Z,22.57
2023-02-02T07:57:55.518Z,22.45
2023-02-02T08:00:23.250Z,22.56
2023-02-02T08:02:50.352Z,22.63
2023-02-02T08:05:17.434Z,22.73
2023-02-02T08:07:44.881Z,22.77
2023-02-02T08:10:12.036Z,22.96
2023-02-02T08:12:39.077Z,22.69
2023-02-02T08:15:06.393Z,22.97
2023-02-02T08:17:33.379Z,23.10
2023-02-02T08:20:00.250Z,22.83
2023-02-02T08:22:27.226Z,22.81
2023-02-02T08:24:54.223Z,23.19
2023-02-02T08:27:21.139Z,23.09
2023-02-02T08:29:48.083Z,23.04
2023-02-02T08:32:15.140Z,23.12
2023-02-02T08:34:42.077Z,23.05
2023-02-02T08:37:09.102Z,23.21
2023-02-02T08:39:36.208Z,23.27
2023-02-02T08:42:03.135Z,23.25
2023-02-02T08:44:45.841Z,23.33
2023-02-02T08:47:17.062Z,23.63
2023-02-02T08:49:45.100Z,23.89
2023-02-02T08:52:11.983Z,24.11
2023-02-02T08:54:38.957Z,24.24
2023-02-02T08:57:05.863Z,24.27
2023-02-02T08:59:32.782Z,24.53
2023-02-02T09:01:59.736Z,24.86
2023-02-02T09:04:26.726Z,24.77
2023-02-02T09:06:53.699Z,24.75
2023-02-02T09:09:20.771Z,25.13
2023-02-02T09:11:47.687Z,25.16
2023-02-02T09:14:14.954Z,24.83
2023-02-02T09:16:42.088Z,24.95
2023-02-02T09:19:10.766Z,25.38
2023-02-02T09:21:37.739Z,26.17
2023-02-02T09:24:12.132Z,24.87
2023-02-02T09:26:40.431Z,25.18
2023-02-02T09:29:08.526Z,25.41
2023-02-02T09:31:36.973Z,25.34
2023-02-02T09:34:05.153Z,25.37
2023-02-02T09:36:32.204Z,25.21
2023-02-02T09:38:59.364Z,25.33
2023-02-02T09:41:38.189Z,25.44
2023-02-02T09:44:17.227Z,25.07
2023-02-02T09:47:02.877Z,25.25
2023-02-02T09:49:40.928Z,24.81
2023-02-02T09:52:12.274Z,24.47
2023-02-02T09:54:44.069Z,24.65
2023-02-02T09:57:23.498Z,24.61
2023-02-02T09:59:51.201Z,24.66
2023-02-02T10:02:21.729Z,24.98
2023-02-02T10:04:51.633Z,24.67
2023-02-02T10:07:32.594Z,24.49
2023-02-02T10:10:03.839Z,24.62
2023-02-02T10:12:33.709Z,24.58
2023-02-02T10:15:18.719Z,24.40
2023-02-02T10:18:06.739Z,24.21
2023-02-02T10:21:04.077Z,24.43
2023-02-02T10:23:35.755Z,24.40
2023-02-02T10:26:16.500Z,24.17
2023-02-02T10:29:00.127Z,24.60
2023-02-02T10:31:33.360Z,24.83
2023-02-02T10:34:17.624Z,24.39
2023-02-02T10:36:50.733Z,23.93
2023-02-02T10:39:24.734Z,24.10
2023-02-02T10:42:44.576Z,23.87
2023-02-02T10:45:20.500Z,23.70
2023-02-02T10:47:47.489Z,23.95
2023-02-02T10:50:14.329Z,24.02
2023-02-02T10:52:47.801Z,23.93
2023-02-02T10:55:14.670Z,23.96
2023-02-02T10:58:14.036Z,24.30
2023-02-02T11:00:58.237Z,23.58
2023-02-02T11:03:30.169Z,23.80
2023-02-02T11:06:16.955Z,23.94
2023-02-02T11:08:45.147Z,22.82
2023-02-02T11:11:33.075Z,22.78
2023-02-02T11:14:09.357Z,23.11
2023-02-02T11:16:43.604Z,23.26
2023-02-02T11:19:17.120Z,23.65
2023-02-02T11:21:48.706Z,23.45
2023-02-02T11:24:28.724Z,23.73
2023-02-02T11:26:56.899Z,23.06
2023-02-02T11:29:31.614Z,22.63
2023-02-02T11:31:58.759Z,22.63
2023-02-02T11:34:26.956Z,23.04
2023-02-02T11:37:00.197Z,23.38
2023-02-02T11:39:27.369Z,23.80
2023-02-02T11:42:05.321Z,23.72
2023-02-02T11:44:32.684Z,23.84
2023-02-02T11:47:00.133Z,24.14
2023-02-02T11:49:27.178Z,24.27
2023-02-02T11:51:59.040Z,24.91
2023-02-02T11:54:33.771Z,24.73
2023-02-02T11:57:05.380Z,24.82
2023-02-02T11:59:39.849Z,24.84
2023-02-02T12:02:26.711Z,24.84
2023-02-02T12:04:55.983Z,24.52
2023-02-02T12:07:29.505Z,24.75
2023-02-02T12:09:59.544Z,24.60
2023-02-02T12:12:29.001Z,23.98
2023-02-02T12:15:07.778Z,24.27
2023-02-02T12:17:46.961Z,23.90
2023-02-02T12:20:26.286Z,24.33
2023-02-02T12:23:20.238Z,24.37
2023-02-02T12:25:56.781Z,24.44
2023-02-02T12:28:30.981Z,24.46
2023-02-02T12:30:57.934Z,24.06
2023-02-02T12:33:37.136Z,23.97
2023-02-02T12:36:19.126Z,23.73
2023-02-02T12:39:03.585Z,23.64
2023-02-02T12:41:41.006Z,23.54
2023-02-02T12:44:19.840Z,23.57
2023-02-02T12:47:15.878Z,23.63
2023-02-02T12:50:14.177Z,24.07
2023-02-02T12:52:48.061Z,24.06
2023-02-02T12:55:22.044Z,24.35
2023-02-02T12:57:51.954Z,23.97
2023-02-02T13:00:44.197Z,23.86
2023-02-02T13:03:13.971Z,23.60
2023-02-02T13:08:48.387Z,24.40
2023-02-02T13:11:30.899Z,24.32
2023-02-02T13:14:08.410Z,23.99
2023-02-02T13:16:36.443Z,23.88
2023-02-02T13:19:21.178Z,24.41
2023-02-02T13:21:48.280Z,24.74
2023-02-02T13:24:26.678Z,24.69
2023-02-02T13:26:53.939Z,24.35
2023-02-02T13:29:47.218Z,24.42
2023-02-02T13:32:30.845Z,23.97
2023-02-02T13:35:05.292Z,23.99
2023-02-02T13:37:41.223Z,23.85
2023-02-02T13:40:20.021Z,23.83
2023-02-02T13:42:55.794Z,24.01
2023-02-02T13:46:00.312Z,23.82
2023-02-02T13:48:38.955Z,23.68
2023-02-02T13:51:43.580Z,23.61
2023-02-02T13:54:31.683Z,23.72
2023-02-02T13:57:01.426Z,23.61
2023-02-02T14:00:03.957Z,23.72
2023-02-02T14:02:40.380Z,23.70
2023-02-02T14:05:07.717Z,23.57
2023-02-02T14:07:42.092Z,23.86
2023-02-02T14:10:20.842Z,23.64
2023-02-02T14:12:47.771Z,23.83
2023-02-02T14:15:17.053Z,23.75
2023-02-02T14:17:43.985Z,23.79
2023-02-02T14:20:40.252Z,23.81
2023-02-02T14:23:44.340Z,23.92
2023-02-02T14:26:11.543Z,23.93
2023-02-02T14:28:43.943Z,24.01
2023-02-02T14:31:51.299Z,23.78
2023-02-02T14:34:42.985Z,23.62
2023-02-02T14:37:25.365Z,23.63
2023-02-02T14:40:07.387Z,23.71
2023-02-02T14:43:10.626Z,24.02
2023-02-02T14:45:41.079Z,23.92
2023-02-02T14:48:18.133Z,24.07
2023-02-02T14:50:57.902Z,24.29
2023-02-02T14:53:33.728Z,24.33
2023-02-02T14:56:01.928Z,24.26
2023-02-02T14:58:51.866Z,24.55
2023-02-02T15:01:23.103Z,24.50
2023-02-02T15:04:08.875Z,24.42
2023-02-02T15:06:36.956Z,24.63
2023-02-02T15:09:29.298Z,24.56
2023-02-02T15:12:01.132Z,24.37
2023-02-02T15:14:47.368Z,24.84
2023-02-02T15:17:25.396Z,25.01
2023-02-02T15:20:02.035Z,24.85
2023-02-02T15:22:38.959Z,25.02
2023-02-02T15:25:23.528Z,24.97
2023-02-02T15:27:58.372Z,24.99
2023-02-02T15:30:27.330Z,25.26
2023-02-02T15:32:54.240Z,25.13
2023-02-02T15:35:23.641Z,25.35
2023-02-02T15:37:57.593Z,25.25
2023-02-02T15:40:25.349Z,25.32
2023-02-02T15:43:10.659Z,25.53
2023-02-02T15:45:48.963Z,25.51
2023-02-02T15:48:18.863Z,25.46
2023-02-02T15:50:51.068Z,25.52
2023-02-02T15:53:19.687Z,25.42
2023-02-02T15:55:46.553Z,25.63
2023-02-02T15:58:33.499Z,25.59
2023-02-02T16:01:05.397Z,25.96
2023-02-02T16:03:38.713Z,25.89
2023-02-02T16:06:06.461Z,25.82
2023-02-02T16:08:36.268Z,25.90
2023-02-02T16:11:10.938Z,25.80
2023-02-02T16:13:37.646Z,25.93
2023-02-02T16:16:07.067Z,26.03
2023-02-02T16:18:35.329Z,25.79
2023-02-02T16:21:17.998Z,26.00
2023-02-02T16:23:44.930Z,25.64
2023-02-02T16:26:12.034Z,25.81
2023-02-02T16:28:38.907Z,26.28
2023-02-02T16:31:07.368Z,26.13
2023-02-02T16:33:39.210Z,26.18
2023-02-02T16:36:28.427Z,26.13
2023-02-02T16:38:57.643Z,26.17
2023-02-02T16:41:47.469Z,26.47
2023-02-02T16:44:44.899Z,26.46
2023-02-02T16:47:26.875Z,26.64
2023-02-02T16:50:08.689Z,26.70
2023-02-02T16:52:52.552Z,26.29
2023-02-02T16:55:19.963Z,26.60
2023-02-02T16:57:47.435Z,26.63
2023-02-02T17:00:24.177Z,27.01
2023-02-02T17:02:53.331Z,26.88
2023-02-02T17:05:26.199Z,26.81
2023-02-02T17:08:01.063Z,26.82
2023-02-02T17:10:31.082Z,27.00
2023-02-02T17:12:59.062Z,26.89
2023-02-02T17:15:35.058Z,26.99
2023-02-02T17:18:03.661Z,27.28
2023-02-02T17:20:30.519Z,27.06
2023-02-02T17:23:00.088Z,27.31
2023-02-02T17:25:33.311Z,27.12
2023-02-02T17:28:00.436Z,27.27
2023-02-02T17:30:27.406Z,27.23
2023-02-02T17:32:54.288Z,27.26
2023-02-02T17:35:23.561Z,27.45
2023-02-02T17:37:52.740Z,27.36
2023-02-02T17:40:21.197Z,27.48
2023-02-02T17:42:52.156Z,27.76
2023-02-02T17:45:24.673Z,27.66
2023-02-02T17:47:51.736Z,27.75
2023-02-02T17:50:18.840Z,27.78
2023-02-02T17:52:46.200Z,27.71
2023-02-02T17:55:24.331Z,27.90
2023-02-02T17:57:52.207Z,27.91
2023-02-02T18:00:20.872Z,27.87
2023-02-02T18:02:48.064Z,28.10
2023-02-02T18:05:16.421Z,27.96
2023-02-02T18:07:43.682Z,28.40
2023-02-02T18:10:12.093Z,28.14
2023-02-02T18:12:39.391Z,28.02
2023-02-02T18:15:08.361Z,28.21
2023-02-02T18:17:35.384Z,28.55
2023-02-02T18:20:02.218Z,28.57
2023-02-02T18:22:29.706Z,28.63
2023-02-02T18:24:58.820Z,28.47
2023-02-02T18:27:25.942Z,28.78
2023-02-02T18:29:52.884Z,28.60
2023-02-02T18:32:19.751Z,28.49
2023-02-02T18:34:51.200Z,28.75
2023-02-02T18:37:18.249Z,28.96
2023-02-02T18:39:45.427Z,28.75
2023-02-02T18:42:12.297Z,29.00
2023-02-02T18:44:39.123Z,29.02
2023-02-02T18:47:06.100Z,29.02
2023-02-02T18:49:32.932Z,29.20
2023-02-02T18:51:59.839Z,29.10
2023-02-02T18:54:26.866Z,29.44
2023-02-02T18:56:53.746Z,29.51
2023-02-02T18:59:20.718Z,29.17
2023-02-02T19:01:47.736Z,29.68
2023-02-02T19:04:14.637Z,29.51
2023-02-02T19:06:59.997Z,29.67
2023-02-02T19:09:26.886Z,29.64
2023-02-02T19:11:54.976Z,29.78
2023-02-02T19:14:26.761Z,29.65
2023-02-02T19:16:55.840Z,29.55
2023-02-02T19:19:27.603Z,29.66
2023-02-02T19:21:58.281Z,29.84
2023-02-02T19:24:26.763Z,29.84
2023-02-02T19:26:53.996Z,29.78
2023-02-02T19:29:24.978Z,29.85
2023-02-02T19:32:00.702Z,29.89
2023-02-02T19:34:27.654Z,29.86
2023-02-02T19:36:54.524Z,29.94
2023-02-02T19:39:24.973Z,29.90
2023-02-02T19:41:51.889Z,29.80
2023-02-02T19:44:20.199Z,29.84
2023-02-02T19:46:49.558Z,30.21
2023-02-02T19:49:29.939Z,29.96
2023-02-02T19:51:56.913Z,30.02
2023-02-02T19:54:32.938Z,29.92
2023-02-02T19:57:01.874Z,30.03
2023-02-02T19:59:32.348Z,29.93
2023-02-02T20:02:00.568Z,29.94
2023-02-02T20:04:27.475Z,29.81
2023-02-02T20:06:59.502Z,29.94
2023-02-02T20:09:28.696Z,29.87
2023-02-02T20:11:56.702Z,30.08
2023-02-02T20:14:30.200Z,29.94
2023-02-02T20:17:01.005Z,29.89
2023-02-02T20:19:31.641Z,30.09
2023-02-02T20:21:58.471Z,29.57
2023-02-02T20:24:31.119Z,29.74
2023-02-02T20:26:59.037Z,29.92
2023-02-02T20:29:28.270Z,30.08
2023-02-02T20:31:56.276Z,30.07
2023-02-02T20:34:30.667Z,29.91
2023-02-02T20:37:12.768Z,29.76
2023-02-02T20:39:47.776Z,30.06
2023-02-02T20:42:15.025Z,30.06
2023-02-02T20:44:41.938Z,29.85
2023-02-02T20:47:08.879Z,29.79
2023-02-02T20:49:36.285Z,29.89
2023-02-02T20:52:04.581Z,29.72
2023-02-02T20:54:32.262Z,29.78
2023-02-02T20:56:59.205Z,30.13
2023-02-02T20:59:26.109Z,30.01
2023-02-02T21:01:53.066Z,29.87
2023-02-02T21:04:20.218Z,29.92
2023-02-02T21:06:48.501Z,30.39
2023-02-02T21:09:15.448Z,30.21
2023-02-02T21:11:42.432Z,29.91
2023-02-02T21:14:09.376Z,30.32
2023-02-02T21:16:36.345Z,30.24
2023-02-02T21:19:03.303Z,30.13
2023-02-02T21:21:30.291Z,30.32
2023-02-02T21:23:57.291Z,30.20
2023-02-02T21:26:27.290Z,30.43
2023-02-02T21:28:54.265Z,30.37
2023-02-02T21:31:21.494Z,29.90
2023-02-02T21:33:50.615Z,30.07
2023-02-02T21:36:35.973Z,30.33
2023-02-02T21:39:17.686Z,30.21
2023-02-02T21:41:44.850Z,30.12
2023-02-02T21:44:16.362Z,30.06
2023-02-02T21:46:43.390Z,30.11
2023-02-02T21:49:19.662Z,30.40
2023-02-02T21:51:46.545Z,30.41
2023-02-02T21:54:26.228Z,30.39
2023-02-02T21:56:53.429Z,30.05
2023-02-02T21:59:21.913Z,30.21
2023-02-02T22:01:49.822Z,30.43
2023-02-02T22:04:23.434Z,30.44
2023-02-02T22:07:00.947Z,30.23
2023-02-02T22:09:46.097Z,30.25
2023-02-02T22:12:15.970Z,30.53
2023-02-02T22:14:44.031Z,30.64
2023-02-02T22:17:29.243Z,30.51
2023-02-02T22:19:58.666Z,30.06
2023-02-02T22:22:33.218Z,30.64
2023-02-02T22:25:10.706Z,30.27
2023-02-02T22:27:42.358Z,30.57
2023-02-02T22:30:29.809Z,30.79
2023-02-02T22:32:56.976Z,30.64
2023-02-02T22:35:23.848Z,30.57
2023-02-02T22:37:51.560Z,30.48
2023-02-02T22:40:22.689Z,30.81
2023-02-02T22:42:50.567Z,30.53
2023-02-02T22:45:17.458Z,30.34
2023-02-02T22:47:47.499Z,30.48
2023-02-02T22:50:17.890Z,30.66
2023-02-02T22:52:44.779Z,30.61
2023-02-02T22:55:11.979Z,30.51
2023-02-02T22:57:38.959Z,30.58
2023-02-02T23:00:13.928Z,30.78
2023-02-02T23:02:41.105Z,30.46
2023-02-02T23:05:09.455Z,30.63
2023-02-02T23:07:36.355Z,31.06
2023-02-02T23:10:03.711Z,30.76
2023-02-02T23:12:30.607Z,30.79
2023-02-02T23:14:57.483Z,31.00
2023-02-02T23:17:24.319Z,30.81
2023-02-02T23:19:51.163Z,31.03
2023-02-02T23:22:18.020Z,30.73
2023-02-02T23:24:44.871Z,31.11
2023-02-02T23:27:13.054Z,30.82
2023-02-02T23:29:40.050Z,31.04
2023-02-02T23:32:07.179Z,31.01
2023-02-02T23:34:34.169Z,30.76
2023-02-02T23:37:01.016Z,31.14
2023-02-02T23:39:27.843Z,30.91
2023-02-02T23:41:54.724Z,30.90
2023-02-02T23:44:21.824Z,31.13
2023-02-02T23:46:48.900Z,31.07
2023-02-02T23:49:15.750Z,31.04
2023-02-02T23:51:42.633Z,31.04
2023-02-02T23:54:10.601Z,31.28
2023-02-02T23:56:37.558Z,31.15
2023-02-02T23:59:04.428Z,31.16
